Time;durP1;ratioP1;P1;durP2;ratioP2;P2;SDS_P1;SDS_P2;PMS_P1;PMS_P2;Temp;Humidity;BMP_temperature;BMP_pressure;BME280_temperature;BME280_humidity;BME280_pressure;Samples;Min_cycle;Max_cycle;Signal;HPM_P1;HPM_P2
2022/01/03 00:00:59;;;;;;;;;;;9.40;99.90;;;;;;5037746;28;19928;-91
2022/01/03 00:03:26;;;;;;;;;;;9.60;99.90;;;;;;5037421;28;19921;-91
2022/01/03 00:05:53;;;;;;;;;;;9.90;99.90;;;;;;5036582;28;19925;-91
2022/01/03 00:08:20;;;;;;;;;;;10.00;99.90;;;;;;5036938;28;19921;-91
2022/01/03 00:10:47;;;;;;;;;;;9.60;99.90;;;;;;5036903;28;20409;-91
2022/01/03 00:13:14;;;;;;;;;;;10.60;99.90;;;;;;5019594;28;19971;-91
2022/01/03 00:15:42;;;;;;;;;;;9.50;99.90;;;;;;5037767;28;20351;-91
2022/01/03 00:18:09;;;;;;;;;;;9.40;99.90;;;;;;5037493;28;19921;-89
2022/01/03 00:20:38;;;;;;;;;;;9.60;99.90;;;;;;5042305;28;19921;-89
2022/01/03 00:23:06;;;;;;;;;;;9.60;99.90;;;;;;5048616;28;19921;-90
2022/01/03 00:25:36;;;;;;;;;;;9.40;99.90;;;;;;5049146;28;19925;-89
2022/01/03 00:28:08;;;;;;;;;;;9.80;99.90;;;;;;5046788;28;19956;-89
2022/01/03 00:30:37;;;;;;;;;;;9.30;99.90;;;;;;5038337;28;19976;-89
2022/01/03 00:33:06;;;;;;;;;;;9.80;99.90;;;;;;5037358;28;19928;-91
2022/01/03 00:35:35;;;;;;;;;;;9.70;99.90;;;;;;5037351;28;19925;-90
2022/01/03 00:38:02;;;;;;;;;;;9.50;99.90;;;;;;5037129;28;19925;-91
2022/01/03 00:40:29;;;;;;;;;;;9.50;99.90;;;;;;5036800;28;19970;-90
2022/01/03 00:42:56;;;;;;;;;;;8.80;99.90;;;;;;5036955;28;19925;-90
2022/01/03 00:45:22;;;;;;;;;;;9.60;99.90;;;;;;5037109;28;19921;-90
2022/01/03 00:47:49;;;;;;;;;;;9.70;99.90;;;;;;5036749;28;19921;-91
2022/01/03 00:50:18;;;;;;;;;;;9.60;99.90;;;;;;5036240;28;20405;-90
2022/01/03 00:52:46;;;;;;;;;;;9.90;99.90;;;;;;5037049;28;20366;-90
2022/01/03 00:55:13;;;;;;;;;;;10.00;99.90;;;;;;5036569;28;19921;-89
2022/01/03 00:57:50;;;;;;;;;;;9.90;99.90;;;;;;5036681;28;20383;-90
2022/01/03 01:00:17;;;;;;;;;;;11.00;99.90;;;;;;5037098;28;19927;-89
2022/01/03 01:02:52;;;;;;;;;;;9.90;99.90;;;;;;5036636;28;20402;-90
2022/01/03 01:05:21;;;;;;;;;;;9.90;99.90;;;;;;5037156;28;19924;-90
2022/01/03 01:07:50;;;;;;;;;;;9.90;99.90;;;;;;5036749;28;19921;-89
2022/01/03 01:10:17;;;;;;;;;;;9.90;99.90;;;;;;5036460;28;20329;-89
2022/01/03 01:12:46;;;;;;;;;;;9.80;99.90;;;;;;5035953;28;19932;-89
2022/01/03 01:15:15;;;;;;;;;;;9.70;99.90;;;;;;5035987;28;20398;-90
2022/01/03 01:17:42;;;;;;;;;;;9.80;99.90;;;;;;5035800;28;19948;-89
2022/01/03 01:20:10;;;;;;;;;;;9.80;99.90;;;;;;5036241;28;20345;-90
2022/01/03 01:22:38;;;;;;;;;;;8.30;99.90;;;;;;5036337;28;19920;-89
2022/01/03 01:25:26;;;;;;;;;;;10.00;99.90;;;;;;5035742;28;19921;-90
2022/01/03 01:27:53;;;;;;;;;;;10.20;99.90;;;;;;5036502;28;20265;-90
2022/01/03 01:30:21;;;;;;;;;;;10.00;99.90;;;;;;5035908;28;19921;-90
2022/01/03 01:32:49;;;;;;;;;;;9.90;99.90;;;;;;5035861;28;20352;-89
2022/01/03 01:35:16;;;;;;;;;;;9.90;99.90;;;;;;5036210;28;19946;-91
2022/01/03 01:37:46;;;;;;;;;;;10.00;99.90;;;;;;5034906;28;19925;-90
2022/01/03 01:40:14;;;;;;;;;;;9.80;99.90;;;;;;5035095;28;20022;-91
2022/01/03 01:42:45;;;;;;;;;;;9.70;99.90;;;;;;5035495;28;19927;-90
2022/01/03 01:45:12;;;;;;;;;;;10.20;99.90;;;;;;5036009;28;19925;-90
2022/01/03 01:47:39;;;;;;;;;;;9.60;99.90;;;;;;5035340;28;19921;-91
2022/01/03 01:50:07;;;;;;;;;;;10.10;99.90;;;;;;5035453;28;19921;-91
2022/01/03 01:52:35;;;;;;;;;;;9.60;99.90;;;;;;5035443;28;20411;-91
2022/01/03 01:55:05;;;;;;;;;;;9.90;99.90;;;;;;5035028;28;19967;-90
2022/01/03 01:57:40;;;;;;;;;;;9.90;99.90;;;;;;5035220;28;19924;-90
2022/01/03 02:00:09;;;;;;;;;;;9.70;99.90;;;;;;5035493;28;19921;-90
2022/01/03 02:02:37;;;;;;;;;;;9.80;99.90;;;;;;5035301;28;19925;-91
2022/01/03 02:05:14;;;;;;;;;;;9.50;99.90;;;;;;5035274;28;19967;-91
2022/01/03 02:07:51;;;;;;;;;;;9.60;99.90;;;;;;5034838;28;20342;-90
2022/01/03 02:10:24;;;;;;;;;;;9.50;99.90;;;;;;5035198;28;19921;-90
2022/01/03 02:12:50;;;;;;;;;;;9.50;99.90;;;;;;5035145;28;19920;-90
2022/01/03 02:15:18;;;;;;;;;;;9.70;99.90;;;;;;5035738;28;19974;-90
2022/01/03 02:17:47;;;;;;;;;;;9.40;99.90;;;;;;5041149;28;19979;-90
2022/01/03 02:20:16;;;;;;;;;;;9.30;99.90;;;;;;5044396;28;20314;-90
2022/01/03 02:22:44;;;;;;;;;;;7.50;99.90;;;;;;5045355;28;19928;-91
2022/01/03 02:25:12;;;;;;;;;;;9.50;99.90;;;;;;5040338;28;19921;-90
2022/01/03 02:27:39;;;;;;;;;;;9.30;99.90;;;;;;5035330;28;19928;-90
2022/01/03 02:30:08;;;;;;;;;;;9.10;99.90;;;;;;5033868;28;19967;-90
2022/01/03 02:32:35;;;;;;;;;;;9.20;99.90;;;;;;5034867;28;19925;-90
2022/01/03 02:35:02;;;;;;;;;;;9.30;99.90;;;;;;5035009;28;19943;-90
2022/01/03 02:37:33;;;;;;;;;;;9.10;99.90;;;;;;5034983;28;19921;-90
2022/01/03 02:40:00;;;;;;;;;;;9.10;99.90;;;;;;5034553;28;19921;-90
2022/01/03 02:42:27;;;;;;;;;;;9.10;99.90;;;;;;5034906;28;19925;-89
2022/01/03 02:45:00;;;;;;;;;;;8.90;99.90;;;;;;5034499;28;20438;-90
2022/01/03 02:47:27;;;;;;;;;;;9.00;99.90;;;;;;5034962;28;20346;-89
2022/01/03 02:49:54;;;;;;;;;;;10.90;99.90;;;;;;5034988;28;19929;-90
2022/01/03 02:52:24;;;;;;;;;;;9.00;99.90;;;;;;5034341;28;19967;-89
2022/01/03 02:54:53;;;;;;;;;;;8.90;99.90;;;;;;5034843;28;19928;-90
2022/01/03 02:57:23;;;;;;;;;;;8.80;99.90;;;;;;5034595;28;19928;-90
2022/01/03 02:59:53;;;;;;;;;;;8.80;99.90;;;;;;5034935;28;19927;-91
2022/01/03 03:02:22;;;;;;;;;;;8.80;99.90;;;;;;5034815;28;19936;-91
2022/01/03 03:04:52;;;;;;;;;;;7.70;99.90;;;;;;5034743;28;19921;-90
2022/01/03 03:07:19;;;;;;;;;;;8.80;99.90;;;;;;5034726;28;20011;-90
2022/01/03 03:09:46;;;;;;;;;;;9.00;99.90;;;;;;5034239;28;19928;-90
2022/01/03 03:12:15;;;;;;;;;;;9.00;99.90;;;;;;5034679;28;19975;-90
2022/01/03 03:14:42;;;;;;;;;;;8.90;99.90;;;;;;5034444;28;19928;-90
2022/01/03 03:17:09;;;;;;;;;;;8.80;99.90;;;;;;5034361;28;20310;-90
2022/01/03 03:19:49;;;;;;;;;;;8.80;99.90;;;;;;5034130;28;19925;-91
2022/01/03 03:22:16;;;;;;;;;;;8.70;99.90;;;;;;5034423;28;19921;-91
2022/01/03 03:24:43;;;;;;;;;;;9.00;99.90;;;;;;5034039;28;19921;-90
2022/01/03 03:27:10;;;;;;;;;;;9.10;99.90;;;;;;5034472;28;19921;-91
2022/01/03 03:29:42;;;;;;;;;;;9.00;99.90;;;;;;5034217;28;19920;-90
2022/01/03 03:32:10;;;;;;;;;;;8.90;99.90;;;;;;5034372;28;19921;-90
2022/01/03 03:34:37;;;;;;;;;;;9.10;99.90;;;;;;5034155;28;19921;-91
2022/01/03 03:37:04;;;;;;;;;;;8.80;99.90;;;;;;5033725;28;19921;-90
2022/01/03 03:39:33;;;;;;;;;;;8.90;99.90;;;;;;5033895;28;19963;-91
2022/01/03 03:42:01;;;;;;;;;;;9.20;99.90;;;;;;5036835;28;20381;-90
2022/01/03 03:44:28;;;;;;;;;;;8.90;99.90;;;;;;5037789;28;19920;-90
2022/01/03 03:46:56;;;;;;;;;;;8.80;99.90;;;;;;5036622;28;19932;-90
2022/01/03 03:49:23;;;;;;;;;;;8.80;99.90;;;;;;5037305;28;19975;-90
2022/01/03 03:51:50;;;;;;;;;;;8.80;99.90;;;;;;5036800;28;20338;-91
2022/01/03 03:54:17;;;;;;;;;;;8.80;99.90;;;;;;5037272;28;20349;-90
2022/01/03 03:56:44;;;;;;;;;;;8.70;99.90;;;;;;5037320;28;19921;-90
2022/01/03 03:59:11;;;;;;;;;;;8.80;99.90;;;;;;5037443;28;19921;-90
2022/01/03 04:01:38;;;;;;;;;;;8.90;99.90;;;;;;5037139;28;20325;-90
2022/01/03 04:04:06;;;;;;;;;;;8.60;99.90;;;;;;5037010;28;19944;-89
2022/01/03 04:06:33;;;;;;;;;;;8.30;99.90;;;;;;5036859;28;19928;-90
2022/01/03 04:09:00;;;;;;;;;;;8.40;99.90;;;;;;5037021;28;19921;-90
2022/01/03 04:11:27;;;;;;;;;;;8.50;99.90;;;;;;5036750;28;19968;-90
2022/01/03 04:13:54;;;;;;;;;;;8.30;99.90;;;;;;5039997;28;19944;-90
2022/01/03 04:16:21;;;;;;;;;;;8.40;99.90;;;;;;5047187;28;19921;-90
2022/01/03 04:18:47;;;;;;;;;;;8.30;99.90;;;;;;5046630;28;19999;-90
2022/01/03 04:21:16;;;;;;;;;;;8.30;99.90;;;;;;5046873;28;20394;-90
2022/01/03 04:23:43;;;;;;;;;;;8.70;99.90;;;;;;5037112;28;19928;-91
2022/01/03 04:26:11;;;;;;;;;;;8.30;99.90;;;;;;5037189;28;19928;-90
2022/01/03 04:28:38;;;;;;;;;;;8.40;99.90;;;;;;5036660;28;19967;-90
2022/01/03 04:31:04;;;;;;;;;;;8.40;99.90;;;;;;5036102;28;19927;-90
2022/01/03 04:33:32;;;;;;;;;;;8.30;99.90;;;;;;5036683;28;19921;-91
2022/01/03 04:35:59;;;;;;;;;;;8.30;99.90;;;;;;5036493;28;19928;-90
2022/01/03 04:38:27;;;;;;;;;;;8.40;99.90;;;;;;5036243;28;19939;-91
2022/01/03 04:40:54;;;;;;;;;;;8.30;99.90;;;;;;5036121;28;19927;-90
2022/01/03 04:43:21;;;;;;;;;;;8.60;99.90;;;;;;5036290;28;19963;-90
2022/01/03 04:45:50;;;;;;;;;;;8.50;99.90;;;;;;5035963;28;19921;-90
2022/01/03 04:48:17;;;;;;;;;;;8.60;99.90;;;;;;5035841;28;19964;-90
2022/01/03 04:50:44;;;;;;;;;;;8.10;99.90;;;;;;5036259;28;20377;-89
2022/01/03 04:53:11;;;;;;;;;;;8.80;99.90;;;;;;5035374;28;19975;-90
2022/01/03 04:55:40;;;;;;;;;;;8.70;99.90;;;;;;5036469;28;20385;-90
2022/01/03 04:58:08;;;;;;;;;;;8.90;99.90;;;;;;5036687;28;20351;-90
2022/01/03 05:00:35;;;;;;;;;;;8.80;99.90;;;;;;5036204;28;19928;-90
2022/01/03 05:03:02;;;;;;;;;;;8.80;99.90;;;;;;5036442;28;19967;-91
2022/01/03 05:05:29;;;;;;;;;;;8.90;99.90;;;;;;5036773;28;19921;-90
2022/01/03 05:07:57;;;;;;;;;;;8.70;99.90;;;;;;5036117;28;19921;-89
2022/01/03 05:10:24;;;;;;;;;;;8.70;99.90;;;;;;5036636;28;19921;-90
2022/01/03 05:12:52;;;;;;;;;;;8.60;99.90;;;;;;5035811;28;19921;-90
2022/01/03 05:15:19;;;;;;;;;;;8.70;99.90;;;;;;5035945;28;19983;-90
2022/01/03 05:17:45;;;;;;;;;;;8.80;99.90;;;;;;5036019;28;19925;-90
2022/01/03 05:20:14;;;;;;;;;;;8.90;99.90;;;;;;5036004;28;19921;-90
2022/01/03 05:22:41;;;;;;;;;;;8.90;99.90;;;;;;5035747;28;20024;-90
2022/01/03 05:25:08;;;;;;;;;;;8.90;99.90;;;;;;5036274;28;20341;-90
2022/01/03 05:27:37;;;;;;;;;;;8.80;99.90;;;;;;5035873;28;19921;-90
2022/01/03 05:30:06;;;;;;;;;;;8.80;99.90;;;;;;5035588;28;20007;-90
2022/01/03 05:32:33;;;;;;;;;;;8.80;99.90;;;;;;5035502;28;20406;-90
2022/01/03 05:35:00;;;;;;;;;;;10.40;99.90;;;;;;5035338;28;19944;-90
2022/01/03 05:37:26;;;;;;;;;;;8.70;99.90;;;;;;5035313;28;19921;-89
2022/01/03 05:39:53;;;;;;;;;;;8.70;99.90;;;;;;5035192;28;19975;-90
2022/01/03 05:42:20;;;;;;;;;;;8.60;99.90;;;;;;5035137;28;19921;-89
2022/01/03 05:44:47;;;;;;;;;;;8.60;99.90;;;;;;5034421;28;19921;-89
2022/01/03 05:47:15;;;;;;;;;;;8.60;99.90;;;;;;5035215;28;19928;-89
2022/01/03 05:49:42;;;;;;;;;;;8.60;99.90;;;;;;5035268;28;19921;-90
2022/01/03 05:52:09;;;;;;;;;;;8.80;99.90;;;;;;5035404;28;19929;-90
2022/01/03 05:54:36;;;;;;;;;;;8.60;99.90;;;;;;5035441;28;19921;-90
2022/01/03 05:57:03;;;;;;;;;;;8.60;99.90;;;;;;5035155;28;19921;-90
2022/01/03 05:59:29;;;;;;;;;;;8.60;99.90;;;;;;5035226;28;19925;-90
2022/01/03 06:01:56;;;;;;;;;;;8.40;99.90;;;;;;5035403;28;19928;-90
2022/01/03 06:04:34;;;;;;;;;;;8.60;99.90;;;;;;5034189;28;19928;-90
2022/01/03 06:07:05;;;;;;;;;;;8.40;99.90;;;;;;5035491;28;19925;-90
2022/01/03 06:09:32;;;;;;;;;;;8.70;99.90;;;;;;5034922;28;19921;-91
2022/01/03 06:11:59;;;;;;;;;;;8.40;99.90;;;;;;5037280;28;19948;-90
2022/01/03 06:14:26;;;;;;;;;;;8.20;99.90;;;;;;5042316;28;19925;-90
2022/01/03 06:16:53;;;;;;;;;;;8.10;99.90;;;;;;5044240;28;19921;-90
2022/01/03 06:19:20;;;;;;;;;;;8.20;99.90;;;;;;5044231;28;19921;-90
2022/01/03 06:21:48;;;;;;;;;;;8.20;99.90;;;;;;5035984;28;19929;-90
2022/01/03 06:24:17;;;;;;;;;;;7.30;99.90;;;;;;5034936;28;19921;-90
2022/01/03 06:26:44;;;;;;;;;;;8.40;99.90;;;;;;5035058;28;19967;-90
2022/01/03 06:29:12;;;;;;;;;;;8.30;99.90;;;;;;5034802;28;19928;-90
2022/01/03 06:31:39;;;;;;;;;;;8.30;99.90;;;;;;5034897;28;19921;-89
2022/01/03 06:34:05;;;;;;;;;;;8.30;99.90;;;;;;5034763;28;19972;-90
2022/01/03 06:36:34;;;;;;;;;;;8.40;99.90;;;;;;5035203;28;20028;-89
2022/01/03 06:39:05;;;;;;;;;;;8.60;99.90;;;;;;5034769;28;19921;-90
2022/01/03 06:41:31;;;;;;;;;;;8.30;99.90;;;;;;5034915;28;19925;-90
2022/01/03 06:43:58;;;;;;;;;;;8.30;99.90;;;;;;5034933;28;19928;-90
2022/01/03 06:46:25;;;;;;;;;;;8.30;99.90;;;;;;5034889;28;20340;-90
2022/01/03 06:48:52;;;;;;;;;;;8.60;99.90;;;;;;5034731;28;19928;-90
2022/01/03 06:51:19;;;;;;;;;;;8.30;99.90;;;;;;5034433;28;19979;-90
2022/01/03 06:53:46;;;;;;;;;;;8.30;99.90;;;;;;5034859;28;19921;-90
2022/01/03 06:56:14;;;;;;;;;;;8.20;99.90;;;;;;5034928;28;20334;-90
2022/01/03 06:58:42;;;;;;;;;;;8.10;99.90;;;;;;5034950;28;19921;-90
2022/01/03 07:01:09;;;;;;;;;;;8.10;99.90;;;;;;5034729;28;19924;-89
2022/01/03 07:03:36;;;;;;;;;;;8.30;99.90;;;;;;5034438;28;20363;-90
2022/01/03 07:06:03;;;;;;;;;;;8.20;99.90;;;;;;5034733;28;19975;-90
2022/01/03 07:08:30;;;;;;;;;;;9.80;99.90;;;;;;5034849;28;19921;-90
2022/01/03 07:10:57;;;;;;;;;;;8.20;99.90;;;;;;5034360;28;20405;-90
2022/01/03 07:13:26;;;;;;;;;;;8.30;99.90;;;;;;5034178;28;19921;-90
2022/01/03 07:21:21;;;;;;;;;;;8.00;99.90;;;;;;5038242;28;19951;-90
2022/01/03 07:23:48;;;;;;;;;;;8.20;99.90;;;;;;5038325;28;19925;-90
2022/01/03 07:26:15;;;;;;;;;;;7.70;99.90;;;;;;5038037;28;20314;-90
2022/01/03 07:28:44;;;;;;;;;;;8.10;99.90;;;;;;5038727;28;19975;-90
2022/01/03 07:31:11;;;;;;;;;;;8.10;99.90;;;;;;5038059;28;20422;-90
2022/01/03 07:33:37;;;;;;;;;;;8.30;99.90;;;;;;5038286;28;19921;-90
2022/01/03 07:36:05;;;;;;;;;;;8.30;99.90;;;;;;5038167;28;19921;-90
2022/01/03 07:38:31;;;;;;;;;;;8.30;99.90;;;;;;5037952;28;20276;-91
2022/01/03 07:40:59;;;;;;;;;;;8.20;99.90;;;;;;5037901;28;19928;-91
2022/01/03 07:43:26;;;;;;;;;;;8.30;99.90;;;;;;5037995;28;19921;-91
2022/01/03 07:45:54;;;;;;;;;;;8.30;99.90;;;;;;5037708;28;19921;-91
2022/01/03 07:48:21;;;;;;;;;;;8.40;99.90;;;;;;5037880;28;19931;-91
2022/01/03 07:50:49;;;;;;;;;;;8.20;99.90;;;;;;5037604;28;19921;-91
2022/01/03 07:53:16;;;;;;;;;;;8.20;99.90;;;;;;5037387;28;20012;-91
2022/01/03 07:55:43;;;;;;;;;;;8.30;99.90;;;;;;5037870;28;19921;-91
2022/01/03 07:58:11;;;;;;;;;;;6.60;99.90;;;;;;5037577;28;19925;-91
2022/01/03 08:00:38;;;;;;;;;;;8.20;99.90;;;;;;5037786;28;20387;-91
2022/01/03 08:03:06;;;;;;;;;;;8.20;99.90;;;;;;5037841;28;19932;-91
2022/01/03 08:05:33;;;;;;;;;;;8.00;99.90;;;;;;5037911;28;19921;-91
2022/01/03 08:08:00;;;;;;;;;;;8.10;99.90;;;;;;5038237;28;20330;-91
2022/01/03 08:10:27;;;;;;;;;;;8.30;99.90;;;;;;5039148;28;19975;-91
2022/01/03 08:12:54;;;;;;;;;;;8.10;99.90;;;;;;5046643;28;19992;-90
2022/01/03 08:15:23;;;;;;;;;;;8.40;99.90;;;;;;5046987;28;19921;-90
2022/01/03 08:17:50;;;;;;;;;;;8.10;99.90;;;;;;5047031;28;19925;-91
2022/01/03 08:20:19;;;;;;;;;;;8.40;99.90;;;;;;5040600;28;19924;-90
2022/01/03 08:22:46;;;;;;;;;;;8.50;99.90;;;;;;5038062;28;19975;-89
2022/01/03 08:25:13;;;;;;;;;;;8.10;99.90;;;;;;5037439;28;19925;-91
2022/01/03 08:27:40;;;;;;;;;;;8.10;99.90;;;;;;5035962;28;19932;-90
2022/01/03 08:30:07;;;;;;;;;;;8.10;99.90;;;;;;5036881;28;20302;-90
2022/01/03 08:32:35;;;;;;;;;;;8.10;99.90;;;;;;5036992;28;19921;-90
2022/01/03 08:35:02;;;;;;;;;;;8.10;99.90;;;;;;5036908;28;19928;-90
2022/01/03 08:37:30;;;;;;;;;;;8.10;99.90;;;;;;5036923;28;19921;-90
2022/01/03 08:39:58;;;;;;;;;;;7.70;99.90;;;;;;5036605;28;19921;-90
2022/01/03 08:42:26;;;;;;;;;;;8.50;99.90;;;;;;5036773;28;20419;-90
2022/01/03 08:44:52;;;;;;;;;;;8.00;99.90;;;;;;5037028;28;19927;-90
2022/01/03 08:47:21;;;;;;;;;;;8.10;99.90;;;;;;5037518;28;19921;-90
2022/01/03 08:49:48;;;;;;;;;;;7.90;99.90;;;;;;5036686;28;19921;-90
2022/01/03 08:52:15;;;;;;;;;;;7.90;99.90;;;;;;5036782;28;19928;-90
2022/01/03 08:54:43;;;;;;;;;;;7.80;99.90;;;;;;5036701;28;19921;-90
2022/01/03 08:57:10;;;;;;;;;;;7.80;99.90;;;;;;5036525;28;20433;-90
2022/01/03 08:59:37;;;;;;;;;;;7.90;99.90;;;;;;5036402;28;19921;-91
2022/01/03 09:02:04;;;;;;;;;;;7.70;99.90;;;;;;5036529;28;20264;-90
2022/01/03 09:04:31;;;;;;;;;;;7.70;99.90;;;;;;5036304;28;20015;-90
2022/01/03 09:06:59;;;;;;;;;;;8.00;99.90;;;;;;5036593;28;20020;-90
2022/01/03 09:09:29;;;;;;;;;;;7.80;99.90;;;;;;5036007;28;19921;-90
2022/01/03 09:11:57;;;;;;;;;;;7.70;99.90;;;;;;5036230;28;19968;-90
2022/01/03 09:14:24;;;;;;;;;;;8.20;99.90;;;;;;5036068;28;19921;-89
2022/01/03 09:16:53;;;;;;;;;;;7.70;99.90;;;;;;5035932;28;20015;-90
2022/01/03 09:19:20;;;;;;;;;;;7.70;99.90;;;;;;5036130;28;20008;-90
2022/01/03 09:21:47;;;;;;;;;;;7.80;99.90;;;;;;5036140;28;19921;-91
2022/01/03 09:24:24;;;;;;;;;;;7.60;99.90;;;;;;5035871;28;19928;-91
2022/01/03 09:29:39;;;;;;;;;;;8.40;99.90;;;;;;5036091;28;20291;-91
2022/01/03 09:32:06;;;;;;;;;;;7.60;99.90;;;;;;5035812;28;19928;-91
2022/01/03 09:34:33;;;;;;;;;;;7.70;99.90;;;;;;5036330;28;19928;-91
2022/01/03 09:37:00;;;;;;;;;;;7.50;99.90;;;;;;5035770;28;19928;-90
2022/01/03 09:39:27;;;;;;;;;;;7.50;99.90;;;;;;5035218;28;19924;-91
2022/01/03 09:41:57;;;;;;;;;;;7.70;99.90;;;;;;5036245;28;19921;-91
2022/01/03 09:44:28;;;;;;;;;;;7.70;99.90;;;;;;5035838;28;19975;-92
2022/01/03 09:46:59;;;;;;;;;;;7.60;99.90;;;;;;5034823;28;19921;-91
2022/01/03 09:49:26;;;;;;;;;;;8.10;99.90;;;;;;5036152;28;19921;-91
2022/01/03 09:51:53;;;;;;;;;;;8.10;99.90;;;;;;5036513;28;20295;-91
2022/01/03 09:54:30;;;;;;;;;;;8.30;99.90;;;;;;5036533;28;19944;-90
2022/01/03 09:56:58;;;;;;;;;;;8.30;99.90;;;;;;5035721;28;19928;-90
2022/01/03 09:59:25;;;;;;;;;;;8.70;99.90;;;;;;5035436;28;19921;-91
2022/01/03 10:01:53;;;;;;;;;;;8.70;99.90;;;;;;5035819;28;19928;-90
2022/01/03 10:04:21;;;;;;;;;;;8.80;99.90;;;;;;5035660;28;19921;-89
2022/01/03 10:06:48;;;;;;;;;;;8.80;99.90;;;;;;5036163;28;20413;-90
2022/01/03 10:09:15;;;;;;;;;;;8.80;99.90;;;;;;5040360;28;19921;-91
2022/01/03 10:11:42;;;;;;;;;;;8.90;99.90;;;;;;5042440;28;19921;-91
2022/01/03 10:14:11;;;;;;;;;;;8.90;99.90;;;;;;5047247;28;19921;-90
2022/01/03 10:16:38;;;;;;;;;;;8.50;99.90;;;;;;5042830;28;19921;-90
2022/01/03 10:19:05;;;;;;;;;;;9.00;99.90;;;;;;5035610;28;19921;-90
2022/01/03 10:21:40;;;;;;;;;;;9.00;99.90;;;;;;5038513;28;19925;-92
2022/01/03 10:24:11;;;;;;;;;;;9.00;99.90;;;;;;5040151;28;20277;-92
2022/01/03 10:26:38;;;;;;;;;;;9.10;99.90;;;;;;5037710;28;19927;-89
2022/01/03 10:29:16;;;;;;;;;;;9.10;99.90;;;;;;5035530;28;19920;-91
2022/01/03 10:31:44;;;;;;;;;;;9.20;99.90;;;;;;5035659;28;19921;-90
2022/01/03 10:34:11;;;;;;;;;;;9.90;99.90;;;;;;5034809;28;19928;-89
2022/01/03 10:36:42;;;;;;;;;;;9.40;99.90;;;;;;5035275;28;19968;-90
2022/01/03 10:39:13;;;;;;;;;;;8.80;99.90;;;;;;5034002;28;19927;-90
2022/01/03 10:41:40;;;;;;;;;;;9.50;99.90;;;;;;5035286;28;19921;-91
2022/01/03 10:44:07;;;;;;;;;;;9.50;99.90;;;;;;5035391;28;19921;-90
2022/01/03 10:46:36;;;;;;;;;;;9.50;99.90;;;;;;5034590;28;19975;-89
2022/01/03 10:49:09;;;;;;;;;;;7.40;99.90;;;;;;5035397;28;19971;-89
2022/01/03 10:51:36;;;;;;;;;;;9.70;99.90;;;;;;5037097;28;19944;-88
2022/01/03 10:54:07;;;;;;;;;;;9.40;99.90;;;;;;5039040;28;19921;-91
2022/01/03 10:56:35;;;;;;;;;;;9.60;99.90;;;;;;5038549;28;19921;-89
2022/01/03 10:59:04;;;;;;;;;;;9.40;99.90;;;;;;5038799;28;19932;-89
2022/01/03 11:01:31;;;;;;;;;;;9.30;99.90;;;;;;5038533;28;19967;-88
2022/01/03 11:04:00;;;;;;;;;;;9.40;99.90;;;;;;5038266;28;20379;-88
2022/01/03 11:06:49;;;;;;;;;;;9.60;99.90;;;;;;5038842;28;19921;-90
2022/01/03 11:12:19;;;;;;;;;;;9.40;99.90;;;;;;5037916;28;19928;-88
2022/01/03 11:14:46;;;;;;;;;;;9.50;99.90;;;;;;5038006;28;20334;-89
2022/01/03 11:17:26;;;;;;;;;;;9.50;99.90;;;;;;5038249;28;19971;-88
2022/01/03 11:19:54;;;;;;;;;;;9.60;99.90;;;;;;5038256;28;19920;-88
2022/01/03 11:22:37;;;;;;;;;;;10.10;99.90;;;;;;5038118;28;20447;-88
2022/01/03 11:25:06;;;;;;;;;;;9.80;99.90;;;;;;5038184;28;19921;-89
2022/01/03 11:27:38;;;;;;;;;;;9.70;99.90;;;;;;5038448;28;19921;-89
2022/01/03 11:30:05;;;;;;;;;;;9.10;99.90;;;;;;5038224;28;20012;-89
2022/01/03 11:32:33;;;;;;;;;;;9.80;99.90;;;;;;5038592;28;19928;-89
2022/01/03 11:35:01;;;;;;;;;;;9.90;99.90;;;;;;5037743;28;19924;-89
2022/01/03 11:37:32;;;;;;;;;;;9.70;99.90;;;;;;5038334;28;19921;-89
2022/01/03 11:42:43;;;;;;;;;;;10.00;99.90;;;;;;5039527;28;19944;-89
2022/01/03 11:45:10;;;;;;;;;;;10.00;99.90;;;;;;5038052;28;19921;-89
2022/01/03 11:47:37;;;;;;;;;;;10.00;99.90;;;;;;5038472;28;19967;-89
2022/01/03 11:50:05;;;;;;;;;;;10.20;99.90;;;;;;5039526;28;19967;-88
2022/01/03 11:52:33;;;;;;;;;;;10.20;99.90;;;;;;5037513;28;20326;-89
2022/01/03 11:55:01;;;;;;;;;;;10.30;99.90;;;;;;5037720;28;19921;-89
2022/01/03 11:57:34;;;;;;;;;;;10.50;99.90;;;;;;5037504;28;19927;-88
2022/01/03 12:05:45;;;;;;;;;;;10.40;99.90;;;;;;5043664;28;19928;-88
2022/01/03 12:08:20;;;;;;;;;;;10.40;99.90;;;;;;5042617;28;19967;-88
2022/01/03 12:10:47;;;;;;;;;;;10.60;99.90;;;;;;5039651;28;19921;-87
2022/01/03 12:13:14;;;;;;;;;;;10.40;99.90;;;;;;5037794;28;19932;-88
2022/01/03 12:15:43;;;;;;;;;;;10.10;99.90;;;;;;5037117;28;19927;-88
2022/01/03 12:18:28;;;;;;;;;;;10.50;99.90;;;;;;5037296;28;19975;-88
2022/01/03 12:20:55;;;;;;;;;;;10.60;99.90;;;;;;5037022;28;19963;-89
2022/01/03 12:23:36;;;;;;;;;;;10.70;99.90;;;;;;5037033;28;19928;-89
2022/01/03 12:26:13;;;;;;;;;;;10.70;99.90;;;;;;5037064;28;19925;-89
2022/01/03 12:28:55;;;;;;;;;;;10.70;99.90;;;;;;5036737;28;19920;-89
2022/01/03 12:31:26;;;;;;;;;;;10.70;99.90;;;;;;5024129;28;19967;-89
2022/01/03 12:34:07;;;;;;;;;;;10.70;99.90;;;;;;5037020;28;19925;-88
2022/01/03 12:36:34;;;;;;;;;;;11.00;99.90;;;;;;5036265;28;19974;-89
2022/01/03 12:39:03;;;;;;;;;;;12.60;99.90;;;;;;5038400;28;19921;-89
2022/01/03 12:41:40;;;;;;;;;;;10.80;99.90;;;;;;5037172;28;19925;-88
2022/01/03 12:44:09;;;;;;;;;;;10.80;99.90;;;;;;5036461;28;19921;-88
2022/01/03 12:46:37;;;;;;;;;;;10.80;99.90;;;;;;5036766;28;19928;-88
2022/01/03 12:49:19;;;;;;;;;;;10.70;99.90;;;;;;5036330;28;20378;-88
2022/01/03 12:51:46;;;;;;;;;;;10.70;99.90;;;;;;5036588;28;20015;-88
2022/01/03 12:54:13;;;;;;;;;;;10.70;99.90;;;;;;5036298;28;20003;-89
2022/01/03 12:56:40;;;;;;;;;;;10.60;99.90;;;;;;5038315;28;20376;-88
2022/01/03 12:59:11;;;;;;;;;;;10.70;99.90;;;;;;5037372;28;19928;-89
2022/01/03 13:01:39;;;;;;;;;;;10.70;99.90;;;;;;5036042;28;19928;-89
2022/01/03 13:04:25;;;;;;;;;;;10.70;99.90;;;;;;5037282;28;20004;-89
2022/01/03 13:07:00;;;;;;;;;;;10.80;99.90;;;;;;5035583;28;19921;-88
2022/01/03 13:09:27;;;;;;;;;;;10.80;99.90;;;;;;5036096;28;19921;-89
2022/01/03 13:11:56;;;;;;;;;;;10.90;99.90;;;;;;5035244;28;20386;-89
2022/01/03 13:14:24;;;;;;;;;;;10.90;99.90;;;;;;5034838;28;19925;-89
2022/01/03 13:16:55;;;;;;;;;;;9.30;99.90;;;;;;5035975;28;20295;-89
2022/01/03 13:19:25;;;;;;;;;;;10.90;99.90;;;;;;5035776;28;19956;-89
2022/01/03 13:21:52;;;;;;;;;;;11.00;99.90;;;;;;5035528;28;19956;-88
2022/01/03 13:24:20;;;;;;;;;;;11.20;99.90;;;;;;5035356;28;19921;-88
2022/01/03 13:26:52;;;;;;;;;;;11.00;99.90;;;;;;5035595;28;20291;-88
2022/01/03 13:29:20;;;;;;;;;;;11.10;99.90;;;;;;5034972;28;19975;-88
2022/01/03 13:31:47;;;;;;;;;;;11.00;99.90;;;;;;5035251;28;19921;-89
2022/01/03 13:34:16;;;;;;;;;;;10.90;99.90;;;;;;5036096;28;19925;-88
2022/01/03 13:36:46;;;;;;;;;;;11.00;99.90;;;;;;5039290;28;19921;-88
2022/01/03 13:39:14;;;;;;;;;;;11.00;99.90;;;;;;5039554;28;19924;-88
2022/01/03 13:41:42;;;;;;;;;;;10.60;99.90;;;;;;5039866;28;20011;-90
2022/01/03 13:44:13;;;;;;;;;;;11.10;99.90;;;;;;5035150;28;19921;-89
2022/01/03 13:49:27;;;;;;;;;;;11.10;99.90;;;;;;5036175;28;19928;-89
2022/01/03 13:51:55;;;;;;;;;;;11.00;99.90;;;;;;5035247;28;20386;-89
2022/01/03 13:54:23;;;;;;;;;;;11.00;99.90;;;;;;5037058;28;20334;-87
2022/01/03 13:56:50;;;;;;;;;;;11.10;99.90;;;;;;5039146;28;20272;-88
2022/01/03 13:59:18;;;;;;;;;;;11.00;99.90;;;;;;5040478;28;19928;-87
2022/01/03 14:01:45;;;;;;;;;;;11.20;99.90;;;;;;5039717;28;20430;-87
2022/01/03 14:04:12;;;;;;;;;;;10.90;99.90;;;;;;5035233;28;19921;-87
2022/01/03 14:06:43;;;;;;;;;;;11.10;99.90;;;;;;5034662;28;19928;-87
2022/01/03 14:09:10;;;;;;;;;;;10.80;99.90;;;;;;5034973;28;20360;-89
2022/01/03 14:11:37;;;;;;;;;;;10.80;99.90;;;;;;5034217;28;20032;-89
2022/01/03 14:14:12;;;;;;;;;;;10.80;99.90;;;;;;5034785;28;19925;-88
2022/01/03 14:16:53;;;;;;;;;;;10.80;99.90;;;;;;5034835;28;19925;-87
2022/01/03 14:19:21;;;;;;;;;;;10.70;99.90;;;;;;5033526;28;19921;-89
2022/01/03 14:21:49;;;;;;;;;;;10.80;99.90;;;;;;5034962;28;20012;-89
2022/01/03 14:24:16;;;;;;;;;;;10.70;99.90;;;;;;5034616;28;20019;-88
2022/01/03 14:26:54;;;;;;;;;;;10.90;99.90;;;;;;5033588;28;19964;-88
2022/01/03 14:29:21;;;;;;;;;;;10.60;99.90;;;;;;5034449;28;19967;-89
2022/01/03 14:31:49;;;;;;;;;;;10.90;99.90;;;;;;5034890;28;19928;-88
2022/01/03 14:34:19;;;;;;;;;;;10.80;99.90;;;;;;5034420;28;20259;-89
2022/01/03 14:36:51;;;;;;;;;;;10.80;99.90;;;;;;5035098;28;19928;-88
2022/01/03 14:39:18;;;;;;;;;;;11.00;99.90;;;;;;5034906;28;19964;-89
2022/01/03 14:41:55;;;;;;;;;;;10.80;99.90;;;;;;5034676;28;19921;-89
2022/01/03 14:44:24;;;;;;;;;;;10.90;99.90;;;;;;5034610;28;19944;-89
2022/01/03 14:47:03;;;;;;;;;;;11.80;99.90;;;;;;5036135;28;20024;-90
2022/01/03 14:49:30;;;;;;;;;;;10.90;99.90;;;;;;5036083;28;19925;-89
2022/01/03 14:51:58;;;;;;;;;;;10.90;99.90;;;;;;5035020;28;19921;-89
2022/01/03 14:54:28;;;;;;;;;;;10.80;99.90;;;;;;5034000;28;20338;-89
2022/01/03 14:56:56;;;;;;;;;;;10.80;99.90;;;;;;5035333;28;19921;-89